Time;durP1;ratioP1;P1;durP2;ratioP2;P2;SDS_P1;SDS_P2;PMS_P1;PMS_P2;Temp;Humidity;BMP_temperature;BMP_pressure;BME280_temperature;BME280_humidity;BME280_pressure;Samples;Min_cycle;Max_cycle;Signal;HPM_P1;HPM_P2
2022/01/31 00:00:42;;;;;;;60.38;50.28;;;;;;;;;;4942991;29;20030;-82
2022/01/31 00:03:07;;;;;;;59.57;49.07;;;;;;;;;;4941063;29;20164;-81
2022/01/31 00:05:32;;;;;;;67.83;49.50;;;;;;;;;;4933689;29;20031;-84
2022/01/31 00:07:57;;;;;;;68.30;49.70;;;;;;;;;;4935138;29;20027;-83
2022/01/31 00:10:30;;;;;;;64.27;50.13;;;;;;;;;;4942841;29;20062;-83
2022/01/31 00:13:08;;;;;;;69.00;51.75;;;;;;;;;;4943362;29;20294;-83
2022/01/31 00:15:39;;;;;;;65.13;49.20;;;;;;;;;;4962627;28;20484;-84
2022/01/31 00:18:04;;;;;;;65.40;49.80;;;;;;;;;;4989965;23;20053;-79
2022/01/31 00:20:29;;;;;;;72.37;50.77;;;;;;;;;;4999419;28;20023;-79
2022/01/31 00:22:55;;;;;;;62.43;50.07;;;;;;;;;;4992665;28;20323;-80
2022/01/31 00:25:20;;;;;;;71.33;51.30;;;;;;;;;;4992225;28;20111;-80
2022/01/31 00:27:47;;;;;;;81.07;54.13;;;;;;;;;;4990315;28;20392;-81
2022/01/31 00:30:13;;;;;;;73.85;50.40;;;;;;;;;;4989199;28;20014;-80
2022/01/31 00:32:38;;;;;;;79.30;52.80;;;;;;;;;;4997043;28;20027;-80
2022/01/31 00:35:04;;;;;;;62.43;49.53;;;;;;;;;;4990774;28;20271;-82
2022/01/31 00:37:29;;;;;;;81.88;52.40;;;;;;;;;;4994407;28;20650;-79
2022/01/31 00:39:54;;;;;;;67.97;52.40;;;;;;;;;;4988176;28;20034;-77
2022/01/31 00:42:19;;;;;;;63.27;50.27;;;;;;;;;;4984008;28;20025;-79
2022/01/31 00:44:55;;;;;;;62.63;49.77;;;;;;;;;;5001818;28;20100;-80
2022/01/31 00:47:31;;;;;;;80.18;51.40;;;;;;;;;;4994471;28;20018;-78
2022/01/31 00:50:08;;;;;;;74.15;49.42;;;;;;;;;;4991631;28;20165;-78
2022/01/31 00:52:34;;;;;;;70.35;51.95;;;;;;;;;;4989110;28;20116;-78
2022/01/31 00:54:59;;;;;;;65.80;50.83;;;;;;;;;;4994041;28;20443;-77
2022/01/31 00:57:24;;;;;;;82.60;53.87;;;;;;;;;;4987518;28;20043;-80
2022/01/31 00:59:51;;;;;;;72.17;51.20;;;;;;;;;;4993970;28;20085;-80
2022/01/31 01:02:20;;;;;;;68.70;50.42;;;;;;;;;;4988549;28;20030;-81
2022/01/31 01:04:45;;;;;;;66.03;52.03;;;;;;;;;;4985099;28;20503;-81
2022/01/31 01:07:10;;;;;;;69.70;52.67;;;;;;;;;;4993561;28;20018;-82
2022/01/31 01:09:37;;;;;;;75.97;52.43;;;;;;;;;;4987301;28;20030;-81
2022/01/31 01:12:02;;;;;;;;;;;;;;;;;;4991927;28;20026;-81
2022/01/31 01:14:27;;;;;;;71.55;52.22;;;;;;;;;;4991071;28;19910;-81
2022/01/31 01:16:52;;;;;;;59.20;50.67;;;;;;;;;;4953979;28;1046168;-81
2022/01/31 01:19:18;;;;;;;63.40;50.17;;;;;;;;;;4990898;28;20070;-81
2022/01/31 01:21:43;;;;;;;71.17;54.00;;;;;;;;;;4992465;28;20022;-81
2022/01/31 01:24:08;;;;;;;70.07;51.67;;;;;;;;;;4980561;28;20022;-80
2022/01/31 01:26:33;;;;;;;71.23;52.00;;;;;;;;;;4992093;28;20101;-80
2022/01/31 01:28:58;;;;;;;63.53;49.07;;;;;;;;;;4987050;28;20038;-80
2022/01/31 01:31:24;;;;;;;60.67;50.57;;;;;;;;;;4996087;28;20088;-80
2022/01/31 01:33:49;;;;;;;68.67;51.73;;;;;;;;;;4992697;28;20018;-81
2022/01/31 01:36:14;;;;;;;63.00;51.23;;;;;;;;;;4998340;28;20117;-81
2022/01/31 01:38:40;;;;;;;65.87;50.43;;;;;;;;;;4984540;28;20018;-80
2022/01/31 01:41:05;;;;;;;71.53;50.40;;;;;;;;;;4991580;28;20037;-80
2022/01/31 01:43:30;;;;;;;72.67;49.43;;;;;;;;;;4993133;28;20030;-80
2022/01/31 01:45:56;;;;;;;61.33;51.23;;;;;;;;;;5007337;28;20030;-80
2022/01/31 01:48:23;;;;;;;65.57;53.00;;;;;;;;;;5014679;28;20017;-80
2022/01/31 01:50:48;;;;;;;71.63;53.53;;;;;;;;;;5013261;28;20018;-79
2022/01/31 01:53:14;;;;;;;60.83;49.27;;;;;;;;;;4993167;28;20078;-79
2022/01/31 01:55:39;;;;;;;57.00;48.67;;;;;;;;;;4992798;28;20022;-80
2022/01/31 01:58:06;;;;;;;87.17;52.43;;;;;;;;;;4991081;28;20034;-80
2022/01/31 02:00:49;;;;;;;60.13;49.70;;;;;;;;;;4990882;28;20034;-80
2022/01/31 02:03:14;;;;;;;79.57;50.42;;;;;;;;;;5004005;28;20002;-80
2022/01/31 02:05:40;;;;;;;68.33;50.83;;;;;;;;;;5010906;28;20023;-79
2022/01/31 02:08:05;;;;;;;60.83;50.78;;;;;;;;;;5011496;28;20037;-80
2022/01/31 02:10:30;;;;;;;62.23;49.87;;;;;;;;;;5013957;28;20026;-80
2022/01/31 02:13:22;;;;;;;62.17;50.07;;;;;;;;;;4998853;28;20113;-80
2022/01/31 02:15:50;;;;;;;54.28;47.25;;;;;;;;;;4993806;28;20045;-78
2022/01/31 02:18:16;;;;;;;65.40;49.92;;;;;;;;;;5004939;28;20041;-79
2022/01/31 02:20:42;;;;;;;63.45;49.45;;;;;;;;;;5016324;28;20021;-79
2022/01/31 02:23:08;;;;;;;62.13;48.60;;;;;;;;;;5005589;28;20081;-80
2022/01/31 02:25:34;;;;;;;72.82;51.17;;;;;;;;;;4996783;28;20054;-79
2022/01/31 02:27:59;;;;;;;68.38;50.17;;;;;;;;;;4992892;28;20054;-79
2022/01/31 02:30:24;;;;;;;66.00;49.97;;;;;;;;;;4990164;28;20025;-79
2022/01/31 02:32:50;;;;;;;73.60;50.43;;;;;;;;;;4993570;28;20018;-79
2022/01/31 02:35:15;;;;;;;66.80;49.60;;;;;;;;;;4997435;28;20053;-79
2022/01/31 02:37:40;;;;;;;69.93;52.20;;;;;;;;;;4992081;28;20022;-79
2022/01/31 02:40:06;;;;;;;61.90;49.30;;;;;;;;;;4990423;28;20248;-80
2022/01/31 02:42:31;;;;;;;67.70;52.70;;;;;;;;;;4988997;28;20038;-79
2022/01/31 02:44:56;;;;;;;62.97;49.20;;;;;;;;;;4995120;28;20081;-79
2022/01/31 02:47:25;;;;;;;64.83;53.90;;;;;;;;;;4988038;28;20373;-78
2022/01/31 02:50:00;;;;;;;61.13;49.80;;;;;;;;;;4991484;28;20025;-79
2022/01/31 02:52:28;;;;;;;71.57;51.17;;;;;;;;;;4992135;28;20026;-79
2022/01/31 02:54:54;;;;;;;56.55;50.58;;;;;;;;;;4992789;28;20101;-80
2022/01/31 02:57:19;;;;;;;71.07;52.50;;;;;;;;;;4995828;28;20093;-79
2022/01/31 02:59:44;;;;;;;66.43;50.70;;;;;;;;;;4989942;28;20022;-79
2022/01/31 03:02:09;;;;;;;55.40;49.60;;;;;;;;;;4993481;28;20026;-79
2022/01/31 03:04:34;;;;;;;58.43;49.20;;;;;;;;;;4994200;28;20503;-80
2022/01/31 03:07:00;;;;;;;59.23;50.13;;;;;;;;;;4994820;28;20015;-78
2022/01/31 03:09:25;;;;;;;67.03;50.60;;;;;;;;;;4990408;28;20061;-79
2022/01/31 03:11:50;;;;;;;55.57;49.47;;;;;;;;;;4991405;28;20028;-79
2022/01/31 03:14:16;;;;;;;61.23;49.07;;;;;;;;;;4993905;28;20037;-79
2022/01/31 03:16:45;;;;;;;65.20;48.77;;;;;;;;;;4993634;28;20050;-77
2022/01/31 03:19:10;;;;;;;65.53;51.03;;;;;;;;;;4987703;28;20373;-79
2022/01/31 03:21:36;;;;;;;65.50;49.63;;;;;;;;;;4993856;28;20019;-78
2022/01/31 03:24:01;;;;;;;55.72;49.88;;;;;;;;;;4987663;28;20026;-79
2022/01/31 03:26:26;;;;;;;54.03;48.17;;;;;;;;;;4993543;28;20032;-80
2022/01/31 03:28:53;;;;;;;61.27;50.97;;;;;;;;;;4992734;28;20360;-79
2022/01/31 03:31:19;;;;;;;60.90;49.67;;;;;;;;;;4995066;28;20073;-79
2022/01/31 03:33:48;;;;;;;61.40;48.97;;;;;;;;;;4992142;28;20022;-79
2022/01/31 03:36:13;;;;;;;60.60;50.03;;;;;;;;;;4993307;28;20319;-78
2022/01/31 03:38:40;;;;;;;55.07;49.30;;;;;;;;;;4981488;28;20034;-79
2022/01/31 03:41:12;;;;;;;62.83;48.75;;;;;;;;;;4991557;28;20206;-79
2022/01/31 03:43:38;;;;;;;56.65;50.42;;;;;;;;;;4995650;28;20018;-79
2022/01/31 03:46:04;;;;;;;58.83;48.83;;;;;;;;;;4980899;28;20022;-79
2022/01/31 03:48:29;;;;;;;57.45;48.22;;;;;;;;;;4991237;28;20040;-79
2022/01/31 03:50:55;;;;;;;56.83;47.77;;;;;;;;;;4996318;28;20041;-78
2022/01/31 03:53:20;;;;;;;59.45;48.97;;;;;;;;;;5008239;28;20015;-78
2022/01/31 03:55:45;;;;;;;54.80;48.70;;;;;;;;;;5027909;28;20037;-79
2022/01/31 03:58:10;;;;;;;53.40;48.20;;;;;;;;;;5016601;28;20011;-79
2022/01/31 04:00:36;;;;;;;55.23;48.40;;;;;;;;;;4996283;28;20460;-78
2022/01/31 04:03:01;;;;;;;61.80;50.27;;;;;;;;;;4996334;28;20049;-79
2022/01/31 04:05:26;;;;;;;55.33;49.83;;;;;;;;;;4996845;28;20013;-79
2022/01/31 04:07:51;;;;;;;64.83;51.90;;;;;;;;;;4993866;28;20047;-81
2022/01/31 04:10:16;;;;;;;56.73;50.67;;;;;;;;;;4993468;28;20030;-79
2022/01/31 04:12:42;;;;;;;67.07;51.53;;;;;;;;;;5002388;28;20026;-79
2022/01/31 04:15:07;;;;;;;56.73;48.03;;;;;;;;;;4995949;28;20026;-79
2022/01/31 04:17:33;;;;;;;56.57;50.30;;;;;;;;;;4997151;28;20447;-80
2022/01/31 04:19:58;;;;;;;55.00;48.70;;;;;;;;;;4993637;28;20030;-79
2022/01/31 04:22:26;;;;;;;53.00;47.63;;;;;;;;;;4995413;28;20031;-77
2022/01/31 04:24:58;;;;;;;63.58;49.65;;;;;;;;;;5007697;28;20030;-79
2022/01/31 04:27:27;;;;;;;54.92;48.45;;;;;;;;;;5010788;28;20025;-79
2022/01/31 04:29:52;;;;;;;65.07;49.42;;;;;;;;;;5014283;28;19998;-78
2022/01/31 04:32:18;;;;;;;54.10;48.33;;;;;;;;;;5020360;28;20049;-78
2022/01/31 04:34:43;;;;;;;59.00;50.53;;;;;;;;;;5020390;28;20070;-79
2022/01/31 04:37:10;;;;;;;54.93;48.93;;;;;;;;;;5032096;28;20034;-80
2022/01/31 04:39:35;;;;;;;55.15;48.92;;;;;;;;;;5014847;28;20082;-79
2022/01/31 04:42:00;;;;;;;53.73;48.50;;;;;;;;;;5016279;28;20062;-78
2022/01/31 04:44:25;;;;;;;58.90;48.50;;;;;;;;;;5013913;28;20046;-79
2022/01/31 04:46:51;;;;;;;52.63;46.97;;;;;;;;;;5032715;28;20016;-80
2022/01/31 04:49:17;;;;;;;53.17;47.88;;;;;;;;;;5014647;28;20298;-79
2022/01/31 04:51:42;;;;;;;68.30;49.67;;;;;;;;;;5017350;28;20026;-80
2022/01/31 04:54:07;;;;;;;64.40;48.37;;;;;;;;;;5010218;28;20006;-79
2022/01/31 04:56:34;;;;;;;63.93;51.33;;;;;;;;;;5016841;28;20045;-78
2022/01/31 04:58:59;;;;;;;63.50;50.35;;;;;;;;;;5000501;28;20034;-78
2022/01/31 05:01:24;;;;;;;57.23;48.07;;;;;;;;;;4993267;28;20026;-78
2022/01/31 05:03:53;;;;;;;57.97;49.20;;;;;;;;;;4989424;28;20614;-80
2022/01/31 05:06:25;;;;;;;61.55;50.65;;;;;;;;;;4994061;28;20010;-80
2022/01/31 05:09:16;;;;;;;61.97;49.00;;;;;;;;;;4991481;28;20114;-78
2022/01/31 05:11:47;;;;;;;66.20;50.50;;;;;;;;;;4990663;28;20447;-78
2022/01/31 05:14:17;;;;;;;68.20;50.22;;;;;;;;;;4991571;28;20014;-79
2022/01/31 05:16:46;;;;;;;60.47;49.47;;;;;;;;;;4988867;28;20015;-79
2022/01/31 05:19:14;;;;;;;62.30;49.03;;;;;;;;;;4992516;28;20038;-77
2022/01/31 05:21:43;;;;;;;55.95;50.03;;;;;;;;;;4998432;28;20026;-79
2022/01/31 05:24:10;;;;;;;58.38;48.88;;;;;;;;;;4993968;28;20050;-79
2022/01/31 05:26:35;;;;;;;52.75;47.53;;;;;;;;;;4993641;28;20617;-79
2022/01/31 05:29:01;;;;;;;56.83;48.60;;;;;;;;;;4994963;28;20491;-79
2022/01/31 05:31:26;;;;;;;54.30;48.33;;;;;;;;;;4990433;28;20030;-77
2022/01/31 05:33:51;;;;;;;57.00;48.17;;;;;;;;;;4991468;28;20030;-78
2022/01/31 05:36:17;;;;;;;75.37;53.37;;;;;;;;;;4985992;28;20022;-79
2022/01/31 05:38:43;;;;;;;66.57;49.97;;;;;;;;;;4989305;28;20033;-77
2022/01/31 05:41:11;;;;;;;64.13;49.80;;;;;;;;;;4992810;28;20037;-78
2022/01/31 05:43:36;;;;;;;56.55;49.10;;;;;;;;;;4993859;28;20022;-77
2022/01/31 05:46:02;;;;;;;55.27;49.60;;;;;;;;;;4993051;28;20420;-78
2022/01/31 05:48:27;;;;;;;63.60;50.50;;;;;;;;;;4995599;28;20304;-78
2022/01/31 05:50:53;;;;;;;68.50;50.20;;;;;;;;;;5002753;28;20019;-78
2022/01/31 05:53:19;;;;;;;57.63;48.67;;;;;;;;;;4991340;28;20026;-76
2022/01/31 05:55:44;;;;;;;66.87;50.93;;;;;;;;;;4995470;28;20042;-77
2022/01/31 05:58:10;;;;;;;82.80;54.23;;;;;;;;;;5000400;28;20099;-76
2022/01/31 06:00:37;;;;;;;62.00;51.53;;;;;;;;;;5014319;28;20346;-76
2022/01/31 06:03:02;;;;;;;68.45;49.47;;;;;;;;;;5015114;28;20014;-77
2022/01/31 06:05:27;;;;;;;75.03;53.33;;;;;;;;;;4996491;28;20026;-75
2022/01/31 06:07:53;;;;;;;68.30;52.30;;;;;;;;;;4990657;28;20523;-76
2022/01/31 06:10:18;;;;;;;69.37;50.73;;;;;;;;;;4995539;28;20018;-78
2022/01/31 06:12:45;;;;;;;88.10;56.63;;;;;;;;;;4999207;28;20022;-77
2022/01/31 06:15:10;;;;;;;66.85;51.13;;;;;;;;;;4995771;28;20073;-77
2022/01/31 06:17:35;;;;;;;115.67;63.97;;;;;;;;;;5039896;23;20021;-82
2022/01/31 06:20:00;;;;;;;61.27;48.90;;;;;;;;;;4996398;28;20117;-83
2022/01/31 06:22:25;;;;;;;54.97;49.03;;;;;;;;;;4992345;28;20026;-84
2022/01/31 06:24:51;;;;;;;73.97;49.37;;;;;;;;;;4991253;28;20510;-84
2022/01/31 06:27:19;;;;;;;68.20;50.17;;;;;;;;;;5000712;28;20018;-82
2022/01/31 06:29:46;;;;;;;55.08;49.42;;;;;;;;;;4993151;28;20042;-83
2022/01/31 06:32:12;;;;;;;70.57;50.05;;;;;;;;;;5000233;28;20041;-82
2022/01/31 06:34:41;;;;;;;67.63;48.37;;;;;;;;;;5000249;28;20463;-84
2022/01/31 06:37:06;;;;;;;71.32;50.33;;;;;;;;;;5001484;28;20019;-83
2022/01/31 06:39:31;;;;;;;56.53;49.33;;;;;;;;;;4997025;28;20037;-81
2022/01/31 06:41:57;;;;;;;68.40;50.13;;;;;;;;;;4996192;28;20061;-82
2022/01/31 06:44:22;;;;;;;53.80;48.17;;;;;;;;;;4998293;28;20023;-82
2022/01/31 06:46:48;;;;;;;62.27;48.83;;;;;;;;;;4999788;28;20022;-82
2022/01/31 06:49:13;;;;;;;58.90;48.20;;;;;;;;;;4997635;28;20018;-83
2022/01/31 06:51:38;;;;;;;65.77;49.37;;;;;;;;;;4999643;28;20022;-82
2022/01/31 06:54:05;;;;;;;65.67;50.50;;;;;;;;;;4997495;28;20069;-82
2022/01/31 06:56:33;;;;;;;67.40;49.42;;;;;;;;;;4997306;28;20026;-82
2022/01/31 06:58:58;;;;;;;86.57;54.20;;;;;;;;;;5000288;28;20106;-83
2022/01/31 07:01:25;;;;;;;66.67;49.17;;;;;;;;;;5000720;28;20022;-82
2022/01/31 07:03:51;;;;;;;81.35;52.35;;;;;;;;;;5000203;28;20022;-82
2022/01/31 07:06:16;;;;;;;55.83;49.83;;;;;;;;;;4999743;28;20121;-84
2022/01/31 07:08:41;;;;;;;63.60;49.33;;;;;;;;;;4994549;28;20054;-81
2022/01/31 07:11:06;;;;;;;63.87;49.00;;;;;;;;;;4998272;28;20026;-80
2022/01/31 07:13:37;;;;;;;62.33;51.17;;;;;;;;;;5010412;28;20026;-82
2022/01/31 07:16:05;;;;;;;57.63;49.30;;;;;;;;;;5015801;28;20013;-81
2022/01/31 07:18:32;;;;;;;71.03;51.88;;;;;;;;;;5004103;28;20026;-82
2022/01/31 07:20:57;;;;;;;66.97;50.92;;;;;;;;;;5003811;28;20128;-82
2022/01/31 07:23:27;;;;;;;68.03;49.50;;;;;;;;;;5006561;28;20030;-82
2022/01/31 07:25:52;;;;;;;58.55;49.80;;;;;;;;;;5004134;28;20025;-84
2022/01/31 07:28:19;;;;;;;74.82;51.15;;;;;;;;;;4996874;28;20023;-82
2022/01/31 07:30:46;;;;;;;54.42;48.97;;;;;;;;;;5002062;28;20027;-84
2022/01/31 07:33:14;;;;;;;;;;;;;;;;;;5007066;28;20026;-81
2022/01/31 07:35:43;;;;;;;78.30;53.05;;;;;;;;;;5016064;28;19941;-82
2022/01/31 07:38:09;;;;;;;76.80;50.50;;;;;;;;;;5012620;28;20014;-80
2022/01/31 07:40:34;;;;;;;;;;;;;;;;;;4994781;28;20018;-82
2022/01/31 07:43:00;;;;;;;53.72;48.15;;;;;;;;;;5028004;28;19925;-83
2022/01/31 07:45:25;;;;;;;59.67;49.53;;;;;;;;;;5002175;28;20349;-83
2022/01/31 07:47:51;;;;;;;66.03;49.10;;;;;;;;;;5008622;28;20314;-80
2022/01/31 07:50:16;;;;;;;58.97;49.33;;;;;;;;;;5005752;28;20018;-81
2022/01/31 07:52:41;;;;;;;59.63;50.37;;;;;;;;;;5005553;28;20037;-80
2022/01/31 07:55:07;;;;;;;56.03;48.50;;;;;;;;;;5006814;28;20030;-82
2022/01/31 07:57:34;;;;;;;56.83;49.40;;;;;;;;;;5002973;28;20046;-82
2022/01/31 07:59:59;;;;;;;;;;;;;;;;;;5006337;28;20030;-81
2022/01/31 08:02:24;;;;;;;59.25;49.65;;;;;;;;;;4999337;28;20110;-82
2022/01/31 08:04:50;;;;;;;60.87;50.47;;;;;;;;;;5000186;28;20300;-82
2022/01/31 08:07:16;;;;;;;59.83;50.08;;;;;;;;;;5003012;28;20045;-81
2022/01/31 08:09:41;;;;;;;66.45;50.35;;;;;;;;;;5000168;28;20038;-80
2022/01/31 08:12:07;;;;;;;56.05;49.30;;;;;;;;;;4997259;28;20034;-83
2022/01/31 08:14:32;;;;;;;60.40;49.87;;;;;;;;;;4998708;28;20046;-80
2022/01/31 08:16:57;;;;;;;68.07;49.67;;;;;;;;;;5002835;28;20029;-81
2022/01/31 08:19:23;;;;;;;66.17;50.43;;;;;;;;;;4995838;28;20481;-82
2022/01/31 08:21:48;;;;;;;55.17;48.63;;;;;;;;;;5005225;28;20041;-80
2022/01/31 08:24:16;;;;;;;55.73;49.77;;;;;;;;;;5003172;28;20018;-83
2022/01/31 08:26:41;;;;;;;61.08;50.10;;;;;;;;;;5016884;28;20014;-82
2022/01/31 08:29:30;;;;;;;58.80;50.90;;;;;;;;;;5001674;28;20029;-84
2022/01/31 08:31:59;;;;;;;56.05;48.80;;;;;;;;;;5006413;28;20015;-82
2022/01/31 08:37:14;;;;;;;56.22;49.05;;;;;;;;;;5034220;28;20030;-81
2022/01/31 08:39:40;;;;;;;62.10;50.03;;;;;;;;;;5016280;28;20034;-80
2022/01/31 08:42:06;;;;;;;57.25;49.35;;;;;;;;;;5014717;28;20057;-81
2022/01/31 08:44:39;;;;;;;58.20;49.70;;;;;;;;;;5017096;28;20018;-82
2022/01/31 08:47:04;;;;;;;61.17;49.15;;;;;;;;;;5016058;28;20021;-81
2022/01/31 08:49:33;;;;;;;63.63;50.73;;;;;;;;;;5009779;28;20082;-78
2022/01/31 08:51:59;;;;;;;71.78;51.47;;;;;;;;;;5012560;28;20014;-80
2022/01/31 08:54:25;;;;;;;65.00;52.73;;;;;;;;;;5014498;28;20078;-81
2022/01/31 08:56:50;;;;;;;59.85;51.35;;;;;;;;;;5010101;28;20036;-76
2022/01/31 08:59:18;;;;;;;62.67;51.22;;;;;;;;;;5001707;28;20030;-81
2022/01/31 09:01:54;;;;;;;69.85;51.63;;;;;;;;;;5018824;28;20018;-83
2022/01/31 09:04:48;;;;;;;61.30;50.38;;;;;;;;;;4997914;28;20038;-82
2022/01/31 09:07:18;;;;;;;63.53;49.78;;;;;;;;;;5009530;28;20054;-85
2022/01/31 09:09:44;;;;;;;65.55;51.80;;;;;;;;;;5004203;28;20023;-80
2022/01/31 09:12:19;;;;;;;56.10;50.27;;;;;;;;;;5003517;28;20053;-81
2022/01/31 09:15:01;;;;;;;59.20;50.95;;;;;;;;;;5006727;28;20057;-81
2022/01/31 09:17:29;;;;;;;70.38;52.97;;;;;;;;;;5016241;28;20035;-82
2022/01/31 09:20:07;;;;;;;54.85;49.30;;;;;;;;;;5000831;28;20030;-81
2022/01/31 09:22:35;;;;;;;65.75;52.75;;;;;;;;;;5004248;28;20030;-82
2022/01/31 09:25:17;;;;;;;;;;;;;;;;;;;;;
2022/01/31 09:27:45;;;;;;;63.22;50.90;;;;;;;;;;5006048;28;20074;-83
2022/01/31 09:30:51;;;;;;;68.00;51.15;;;;;;;;;;5003210;28;20057;-86
2022/01/31 09:33:23;;;;;;;62.53;51.50;;;;;;;;;;5006026;28;20097;-86
2022/01/31 09:35:49;;;;;;;64.00;52.10;;;;;;;;;;5003350;28;20034;-84
2022/01/31 09:38:24;;;;;;;79.30;52.17;;;;;;;;;;4996235;28;20048;-84
2022/01/31 09:40:49;;;;;;;65.28;51.78;;;;;;;;;;5019180;28;20370;-83
2022/01/31 09:48:37;;;;;;;76.63;54.58;;;;;;;;;;5018724;23;20093;-80
2022/01/31 09:51:13;;;;;;;64.53;52.55;;;;;;;;;;4984903;28;20030;-78
2022/01/31 09:53:49;;;;;;;70.78;53.15;;;;;;;;;;4973548;28;20023;-81
2022/01/31 09:56:19;;;;;;;57.40;50.83;;;;;;;;;;4962165;28;20085;-79
2022/01/31 09:58:48;;;;;;;63.33;51.97;;;;;;;;;;4961887;28;20089;-80
2022/01/31 10:01:14;;;;;;;67.88;53.00;;;;;;;;;;4962201;28;20034;-79
2022/01/31 10:03:56;;;;;;;61.13;50.63;;;;;;;;;;4963158;28;20102;-81
2022/01/31 10:06:29;;;;;;;63.95;52.10;;;;;;;;;;4961993;28;20023;-83
2022/01/31 10:09:08;;;;;;;59.35;51.38;;;;;;;;;;4957966;28;20086;-79
2022/01/31 10:11:41;;;;;;;56.20;50.22;;;;;;;;;;4964680;29;20027;-81
2022/01/31 10:16:55;;;;;;;62.85;51.95;;;;;;;;;;4962382;29;20054;-79
2022/01/31 10:19:20;;;;;;;61.87;52.37;;;;;;;;;;4959265;29;20099;-79
2022/01/31 10:21:54;;;;;;;58.57;52.20;;;;;;;;;;4961315;28;20022;-81
2022/01/31 10:24:20;;;;;;;64.25;52.55;;;;;;;;;;4973123;28;20055;-82
2022/01/31 10:26:45;;;;;;;58.90;52.53;;;;;;;;;;4980147;28;20489;-80
2022/01/31 10:29:12;;;;;;;63.63;52.17;;;;;;;;;;4975751;28;20290;-81
2022/01/31 10:32:03;;;;;;;66.03;52.30;;;;;;;;;;4976419;28;20019;-79
2022/01/31 10:34:30;;;;;;;61.58;51.70;;;;;;;;;;4952427;28;20031;-79
2022/01/31 10:37:03;;;;;;;58.55;52.10;;;;;;;;;;4963937;28;20019;-81
2022/01/31 10:45:31;;;;;;;55.97;50.30;;;;;;;;;;4944258;29;20039;-80
2022/01/31 10:53:38;;;;;;;62.00;52.30;;;;;;;;;;4965316;28;20027;-79
2022/01/31 10:56:03;;;;;;;55.97;50.03;;;;;;;;;;4965667;29;20019;-79
2022/01/31 10:58:30;;;;;;;67.87;53.17;;;;;;;;;;4960325;28;20503;-79
2022/01/31 11:01:10;;;;;;;57.70;51.65;;;;;;;;;;4956985;28;20037;-80
2022/01/31 11:03:35;;;;;;;56.55;50.80;;;;;;;;;;4982660;28;20023;-79
2022/01/31 11:06:08;;;;;;;86.23;56.67;;;;;;;;;;4965442;29;20055;-79
2022/01/31 11:08:34;;;;;;;70.15;53.83;;;;;;;;;;4961829;29;20027;-80
2022/01/31 11:10:59;;;;;;;55.07;49.63;;;;;;;;;;4964003;29;20366;-79
2022/01/31 11:13:30;;;;;;;55.47;49.57;;;;;;;;;;4962732;28;20426;-80
2022/01/31 11:15:55;;;;;;;55.28;49.58;;;;;;;;;;4964205;28;20034;-78
2022/01/31 11:18:21;;;;;;;55.83;49.97;;;;;;;;;;4959451;29;20019;-79
2022/01/31 11:20:49;;;;;;;60.10;52.03;;;;;;;;;;4961231;28;20473;-82
2022/01/31 11:23:16;;;;;;;55.15;49.60;;;;;;;;;;4960615;28;20027;-80
2022/01/31 11:25:43;;;;;;;59.88;52.55;;;;;;;;;;4961826;28;20059;-81
2022/01/31 11:28:09;;;;;;;71.85;54.42;;;;;;;;;;4966109;28;20575;-81
2022/01/31 11:30:35;;;;;;;58.85;50.92;;;;;;;;;;4953470;28;20024;-83
2022/01/31 11:33:02;;;;;;;55.73;50.17;;;;;;;;;;4957801;29;20047;-84
2022/01/31 11:35:27;;;;;;;56.83;50.85;;;;;;;;;;4949817;28;20078;-85
2022/01/31 11:37:53;;;;;;;58.63;52.13;;;;;;;;;;4966483;29;20230;-84
2022/01/31 11:40:18;;;;;;;65.80;53.13;;;;;;;;;;4958220;28;20027;-84
2022/01/31 11:42:45;;;;;;;71.95;53.55;;;;;;;;;;4962317;29;20030;-84
2022/01/31 11:45:24;;;;;;;61.42;51.78;;;;;;;;;;4961638;28;20055;-84
2022/01/31 11:47:50;;;;;;;56.22;50.22;;;;;;;;;;4974110;28;20022;-86
2022/01/31 11:50:17;;;;;;;55.88;50.30;;;;;;;;;;4958855;28;20012;-86
2022/01/31 11:52:49;;;;;;;56.58;50.90;;;;;;;;;;4964608;28;20050;-85
2022/01/31 11:55:16;;;;;;;65.00;53.58;;;;;;;;;;4963564;28;20046;-85
2022/01/31 11:57:45;;;;;;;58.08;51.85;;;;;;;;;;4963808;29;20020;-83
2022/01/31 12:00:12;;;;;;;57.55;51.20;;;;;;;;;;4971562;28;20023;-82
2022/01/31 12:02:45;;;;;;;67.13;54.97;;;;;;;;;;4969377;29;20016;-83
2022/01/31 12:05:12;;;;;;;62.50;52.47;;;;;;;;;;4964844;29;20011;-85
2022/01/31 12:07:40;;;;;;;;;;;;;;;;;;4962787;28;20027;-84
2022/01/31 12:10:07;;;;;;;54.63;49.38;;;;;;;;;;4965494;28;19970;-86
2022/01/31 12:13:11;;;;;;;60.42;52.63;;;;;;;;;;4983791;28;20024;-84
2022/01/31 12:24:04;;;;;;;56.80;50.72;;;;;;;;;;4962104;28;20038;-83
2022/01/31 12:26:32;;;;;;;56.55;50.80;;;;;;;;;;4967410;28;20031;-85
2022/01/31 12:28:57;;;;;;;62.03;53.17;;;;;;;;;;4963960;29;20019;-83
2022/01/31 12:31:37;;;;;;;58.17;51.90;;;;;;;;;;4965746;28;20545;-81
2022/01/31 12:34:08;;;;;;;57.40;51.47;;;;;;;;;;4966366;28;20043;-80
2022/01/31 12:36:36;;;;;;;57.03;50.97;;;;;;;;;;4982207;28;20027;-81
2022/01/31 12:39:03;;;;;;;58.47;51.45;;;;;;;;;;4964846;28;20090;-79
2022/01/31 12:41:30;;;;;;;58.83;52.55;;;;;;;;;;4966093;28;20027;-83
2022/01/31 12:44:14;;;;;;;55.20;49.70;;;;;;;;;;4965995;29;20016;-82
2022/01/31 12:46:47;;;;;;;57.30;51.20;;;;;;;;;;4969510;28;20524;-81
2022/01/31 12:49:13;;;;;;;59.97;53.08;;;;;;;;;;4980425;28;20023;-83
2022/01/31 12:51:55;;;;;;;58.40;52.07;;;;;;;;;;4972758;28;20030;-82
2022/01/31 12:54:21;;;;;;;58.53;52.17;;;;;;;;;;4972352;28;20052;-81
2022/01/31 12:56:46;;;;;;;59.40;52.97;;;;;;;;;;4968789;28;20031;-82
2022/01/31 12:59:14;;;;;;;58.00;51.77;;;;;;;;;;4964932;28;20046;-80
2022/01/31 13:01:41;;;;;;;58.42;52.13;;;;;;;;;;4962063;28;20140;-81
2022/01/31 13:04:14;;;;;;;57.92;51.05;;;;;;;;;;4965197;28;20019;-90
2022/01/31 13:06:52;;;;;;;57.58;51.47;;;;;;;;;;4977043;28;20026;-88
2022/01/31 13:12:30;;;;;;;66.55;53.10;;;;;;;;;;4955776;29;20118;-85
2022/01/31 13:15:20;;;;;;;59.13;52.42;;;;;;;;;;4974289;28;20023;-86
2022/01/31 13:21:24;;;;;;;;;;;;;;;;;;;;;
2022/01/31 13:24:00;;;;;;;60.13;51.53;;;;;;;;;;4960691;29;20115;-89
2022/01/31 13:26:44;;;;;;;56.88;50.97;;;;;;;;;;4969568;28;20023;-87
2022/01/31 13:32:54;;;;;;;58.95;52.60;;;;;;;;;;4979306;28;20073;-88
2022/01/31 13:35:19;;;;;;;66.63;54.05;;;;;;;;;;4966676;28;20091;-86
2022/01/31 13:37:54;;;;;;;59.93;53.43;;;;;;;;;;4973239;28;20003;-87
2022/01/31 13:40:23;;;;;;;59.55;52.80;;;;;;;;;;4960957;28;20023;-86
2022/01/31 13:43:12;;;;;;;67.43;53.88;;;;;;;;;;4957098;28;20015;-86
2022/01/31 13:45:52;;;;;;;58.03;52.00;;;;;;;;;;4969141;28;20022;-85
2022/01/31 13:50:52;;;;;;;60.88;52.80;;;;;;;;;;4977639;28;20043;-85
2022/01/31 13:53:18;;;;;;;67.07;53.75;;;;;;;;;;4968478;28;20078;-81
2022/01/31 13:55:51;;;;;;;79.90;56.78;;;;;;;;;;4967321;28;20050;-80
2022/01/31 13:58:24;;;;;;;78.82;56.35;;;;;;;;;;4962300;28;20051;-83
2022/01/31 14:00:49;;;;;;;59.92;52.97;;;;;;;;;;4961374;28;20118;-80
2022/01/31 14:03:16;;;;;;;80.67;56.87;;;;;;;;;;4960340;28;20042;-80
2022/01/31 14:05:41;;;;;;;;;;;;;;;;;;4961709;28;20051;-79
2022/01/31 14:08:10;;;;;;;65.15;55.17;;;;;;;;;;4958921;28;19977;-81
2022/01/31 14:10:36;;;;;;;70.85;54.38;;;;;;;;;;4962757;28;20015;-80
2022/01/31 14:13:08;;;;;;;61.17;53.03;;;;;;;;;;4960140;28;20034;-78
2022/01/31 14:15:38;;;;;;;70.45;55.60;;;;;;;;;;4962305;28;20035;-80
2022/01/31 14:18:03;;;;;;;75.65;57.13;;;;;;;;;;4968796;28;20011;-78
2022/01/31 14:20:30;;;;;;;62.63;53.03;;;;;;;;;;4965533;28;20090;-81
2022/01/31 14:22:57;;;;;;;65.72;54.15;;;;;;;;;;4965261;28;20488;-82
2022/01/31 14:25:22;;;;;;;64.43;52.88;;;;;;;;;;4961667;28;20197;-79
2022/01/31 14:27:48;;;;;;;59.77;52.67;;;;;;;;;;4962495;28;20110;-78
2022/01/31 14:30:14;;;;;;;65.40;52.92;;;;;;;;;;4961758;28;20019;-79
2022/01/31 14:32:39;;;;;;;78.30;57.53;;;;;;;;;;4960982;28;20034;-79
2022/01/31 14:35:07;;;;;;;62.80;53.60;;;;;;;;;;4961682;28;20422;-82
2022/01/31 14:37:34;;;;;;;64.93;54.50;;;;;;;;;;4960641;28;20031;-79
2022/01/31 14:40:08;;;;;;;58.47;52.20;;;;;;;;;;4960142;28;20019;-78
2022/01/31 14:42:45;;;;;;;84.82;57.05;;;;;;;;;;4962783;28;20095;-85
2022/01/31 14:47:56;;;;;;;77.97;55.85;;;;;;;;;;4956246;28;20030;-79
2022/01/31 14:50:27;;;;;;;74.68;55.17;;;;;;;;;;4958452;28;20027;-82
2022/01/31 14:52:53;;;;;;;68.28;54.83;;;;;;;;;;4953998;29;20031;-81
2022/01/31 14:55:25;;;;;;;64.73;54.40;;;;;;;;;;4959840;28;20106;-84
2022/01/31 14:57:52;;;;;;;64.15;53.50;;;;;;;;;;4960901;28;20023;-80
2022/01/31 15:00:17;;;;;;;;;;;;;;;;;;4957723;28;20039;-82
2022/01/31 15:02:43;;;;;;;71.47;55.20;;;;;;;;;;4973023;28;20443;-83
2022/01/31 15:05:10;;;;;;;60.13;52.97;;;;;;;;;;4958980;28;20256;-84
2022/01/31 15:07:35;;;;;;;58.35;52.20;;;;;;;;;;4958874;28;20281;-82
2022/01/31 15:10:01;;;;;;;58.33;51.87;;;;;;;;;;4953707;28;20015;-82
2022/01/31 15:12:26;;;;;;;73.27;54.77;;;;;;;;;;4961181;28;20106;-82